createdAt,value
2023-11-03T00:01:49.415Z,3.88
2023-11-03T00:04:16.860Z,3.88
2023-11-03T00:06:43.946Z,3.87
2023-11-03T00:09:17.323Z,3.87
2023-11-03T00:11:45.714Z,3.87
2023-11-03T00:14:13.270Z,3.85
2023-11-03T00:16:40.051Z,3.84
2023-11-03T00:19:08.364Z,3.85
2023-11-03T00:21:34.979Z,3.85
2023-11-03T00:24:01.918Z,3.85
2023-11-03T00:26:29.517Z,3.86
2023-11-03T00:28:57.285Z,3.84
2023-11-03T00:31:23.923Z,3.82
2023-11-03T00:33:50.944Z,3.82
2023-11-03T00:36:17.686Z,3.84
2023-11-03T00:38:45.638Z,3.84
2023-11-03T00:41:14.904Z,3.83
2023-11-03T00:45:22.731Z,3.83
2023-11-03T00:47:50.215Z,3.79
2023-11-03T00:50:17.622Z,3.78
2023-11-03T00:52:44.994Z,3.75
2023-11-03T00:55:12.904Z,3.72
2023-11-03T00:57:40.945Z,3.69
2023-11-03T01:00:13.877Z,3.68
2023-11-03T01:02:45.298Z,3.67
2023-11-03T01:05:15.667Z,3.66
2023-11-03T01:07:44.255Z,3.66
2023-11-03T01:10:16.817Z,3.66
2023-11-03T01:12:45.143Z,3.67
2023-11-03T01:15:14.399Z,3.69
2023-11-03T01:17:43.561Z,3.70
2023-11-03T01:20:20.973Z,3.70
2023-11-03T01:22:51.641Z,3.69
2023-11-03T01:25:19.153Z,3.69
2023-11-03T01:27:47.313Z,3.68
2023-11-03T01:30:15.542Z,3.65
2023-11-03T01:45:02.784Z,3.70
2023-11-03T01:47:30.034Z,3.69
2023-11-03T01:49:57.157Z,3.67
2023-11-03T01:52:27.955Z,3.65
2023-11-03T01:54:55.210Z,3.64
2023-11-03T01:57:23.097Z,3.65
2023-11-03T01:59:50.057Z,3.67
2023-11-03T02:02:16.988Z,3.67
2023-11-03T02:04:44.332Z,3.68
2023-11-03T02:07:11.371Z,3.69
2023-11-03T02:09:38.305Z,3.69
2023-11-03T02:12:06.230Z,3.68
2023-11-03T02:14:32.965Z,3.69
2023-11-03T02:17:01.490Z,3.69
2023-11-03T02:19:28.953Z,3.71
2023-11-03T02:21:55.554Z,3.74
2023-11-03T02:24:23.224Z,3.77
2023-11-03T02:26:49.772Z,3.79
2023-11-03T02:29:20.667Z,3.82
2023-11-03T02:31:47.128Z,3.84
2023-11-03T02:34:14.065Z,3.85
2023-11-03T02:36:41.011Z,3.89
2023-11-03T02:39:07.534Z,3.91
2023-11-03T02:41:34.956Z,3.90
2023-11-03T02:44:01.758Z,3.90
2023-11-03T02:46:30.040Z,3.92
2023-11-03T02:48:57.325Z,3.95
2023-11-03T02:51:24.509Z,4.00
2023-11-03T02:53:51.591Z,4.03
2023-11-03T02:56:24.943Z,4.06
2023-11-03T02:58:55.126Z,4.09
2023-11-03T03:01:28.839Z,4.12
2023-11-03T03:03:56.007Z,4.15
2023-11-03T03:06:23.139Z,4.17
2023-11-03T03:08:50.850Z,4.17
2023-11-03T03:11:17.734Z,4.18
2023-11-03T03:13:45.237Z,4.19
2023-11-03T03:16:12.767Z,4.18
2023-11-03T03:18:39.441Z,4.19
2023-11-03T03:21:06.424Z,4.22
2023-11-03T03:23:33.226Z,4.24
2023-11-03T03:26:00.330Z,4.25
2023-11-03T03:28:28.148Z,4.26
2023-11-03T03:30:55.357Z,4.28
2023-11-03T03:33:22.366Z,4.29
2023-11-03T03:35:49.857Z,4.29
2023-11-03T03:38:16.688Z,4.28
2023-11-03T03:40:43.408Z,4.28
2023-11-03T03:43:11.031Z,4.30
2023-11-03T03:45:38.150Z,4.33
2023-11-03T03:48:05.777Z,4.35
2023-11-03T03:50:32.727Z,4.36
2023-11-03T03:52:59.433Z,4.38
2023-11-03T03:55:26.770Z,4.39
2023-11-03T03:57:53.814Z,4.40
2023-11-03T04:00:22.363Z,4.44
2023-11-03T04:02:51.121Z,4.52
2023-11-03T04:05:17.759Z,4.62
2023-11-03T04:07:44.431Z,4.72
2023-11-03T04:10:11.261Z,4.82
2023-11-03T04:12:38.210Z,4.90
2023-11-03T04:15:08.242Z,4.97
2023-11-03T04:17:37.908Z,5.05
2023-11-03T04:20:04.844Z,5.11
2023-11-03T04:22:32.857Z,5.17
2023-11-03T04:24:59.808Z,5.23
2023-11-03T04:27:27.078Z,5.28
2023-11-03T04:29:54.155Z,5.33
2023-11-03T04:32:20.974Z,5.39
2023-11-03T04:34:47.519Z,5.45
2023-11-03T04:37:14.537Z,5.49
2023-11-03T04:39:44.152Z,5.54
2023-11-03T04:42:11.656Z,5.59
2023-11-03T04:44:38.639Z,5.65
2023-11-03T04:47:05.657Z,5.70
2023-11-03T04:49:33.564Z,5.72
2023-11-03T04:52:01.927Z,5.74
2023-11-03T04:54:28.585Z,5.73
2023-11-03T04:56:55.614Z,5.70
2023-11-03T04:59:24.464Z,5.68
2023-11-03T05:01:51.216Z,5.67
2023-11-03T05:04:18.282Z,5.66
2023-11-03T05:06:45.451Z,5.66
2023-11-03T05:09:12.834Z,5.65
2023-11-03T05:11:40.140Z,5.63
2023-11-03T05:14:07.947Z,5.60
2023-11-03T05:16:35.215Z,5.57
2023-11-03T05:19:02.900Z,5.57
2023-11-03T05:21:33.333Z,5.58
2023-11-03T05:24:01.139Z,5.61
2023-11-03T05:26:27.712Z,5.63
2023-11-03T05:28:57.341Z,5.67
2023-11-03T05:31:25.029Z,5.72
2023-11-03T05:33:52.419Z,5.79
2023-11-03T05:36:19.293Z,5.87
2023-11-03T05:38:46.183Z,5.91
2023-11-03T05:41:15.732Z,5.97
2023-11-03T05:43:43.393Z,6.10
2023-11-03T05:46:10.151Z,6.33
2023-11-03T05:48:37.509Z,6.62
2023-11-03T05:51:04.985Z,6.94
2023-11-03T05:53:31.837Z,7.26
2023-11-03T05:55:58.765Z,7.55
2023-11-03T05:58:26.456Z,7.79
2023-11-03T06:00:57.617Z,7.99
2023-11-03T06:03:25.505Z,8.13
2023-11-03T06:05:52.385Z,8.22
2023-11-03T06:08:18.826Z,8.27
2023-11-03T06:10:45.894Z,8.30
2023-11-03T06:13:12.807Z,8.33
2023-11-03T06:15:40.633Z,8.36
2023-11-03T06:18:07.754Z,8.39
2023-11-03T06:20:34.292Z,8.41
2023-11-03T06:23:02.685Z,8.44
2023-11-03T06:25:32.368Z,8.47
2023-11-03T06:27:59.407Z,8.52
2023-11-03T06:30:27.380Z,8.56
2023-11-03T06:32:53.968Z,8.63
2023-11-03T06:35:20.819Z,8.70
2023-11-03T06:37:48.709Z,8.79
2023-11-03T06:40:15.963Z,8.89
2023-11-03T06:42:42.787Z,8.99
2023-11-03T06:45:10.380Z,9.06
2023-11-03T06:47:37.352Z,9.13
2023-11-03T06:50:05.431Z,9.23
2023-11-03T06:52:32.585Z,9.33
2023-11-03T06:54:59.996Z,9.44
2023-11-03T06:57:26.644Z,9.56
2023-11-03T06:59:53.637Z,9.68
2023-11-03T07:02:20.349Z,9.79
2023-11-03T07:04:49.435Z,9.86
2023-11-03T07:07:19.557Z,9.96
2023-11-03T07:09:49.120Z,10.04
2023-11-03T07:12:17.183Z,10.09
2023-11-03T07:14:46.088Z,10.12
2023-11-03T07:17:12.806Z,10.13
2023-11-03T07:19:40.514Z,10.14
2023-11-03T07:22:07.734Z,10.17
2023-11-03T07:24:34.415Z,10.21
2023-11-03T07:27:01.307Z,10.27
2023-11-03T07:29:27.936Z,10.31
2023-11-03T07:31:54.782Z,10.32
2023-11-03T07:34:21.953Z,10.34
2023-11-03T07:36:48.510Z,10.33
2023-11-03T07:39:15.399Z,10.31
2023-11-03T07:41:42.345Z,10.30
2023-11-03T07:44:11.293Z,10.29
2023-11-03T07:46:38.354Z,10.27
2023-11-03T07:49:05.286Z,10.25
2023-11-03T07:51:33.115Z,10.25
2023-11-03T07:54:00.366Z,10.25
2023-11-03T07:56:35.457Z,10.26
2023-11-03T07:59:03.764Z,10.29
2023-11-03T08:01:31.092Z,10.33
2023-11-03T08:03:58.707Z,10.36
2023-11-03T08:06:26.381Z,10.42
2023-11-03T08:08:53.852Z,10.50
2023-11-03T08:11:22.293Z,10.58
2023-11-03T08:13:50.130Z,10.69
2023-11-03T08:16:17.005Z,10.82
2023-11-03T08:18:45.841Z,10.97
2023-11-03T08:21:12.551Z,11.12
2023-11-03T08:23:39.219Z,11.28
2023-11-03T08:26:06.371Z,11.40
2023-11-03T08:28:36.390Z,11.51
2023-11-03T08:31:03.692Z,11.60
2023-11-03T08:33:31.338Z,11.67
2023-11-03T08:35:58.363Z,11.71
2023-11-03T08:38:25.900Z,11.72
2023-11-03T08:40:53.762Z,11.74
2023-11-03T08:43:21.589Z,11.78
2023-11-03T08:45:50.381Z,11.86
2023-11-03T08:48:17.577Z,11.94
2023-11-03T08:50:44.369Z,11.99
2023-11-03T08:53:11.124Z,12.06
2023-11-03T08:55:38.155Z,12.16
2023-11-03T08:58:07.625Z,12.25
2023-11-03T09:00:39.977Z,12.33
2023-11-03T09:03:08.030Z,12.40
2023-11-03T09:05:34.630Z,12.44
2023-11-03T09:08:01.226Z,12.48
2023-11-03T09:10:30.114Z,12.48
2023-11-03T09:12:57.335Z,12.51
2023-11-03T09:15:24.566Z,12.46
2023-11-03T09:17:52.436Z,12.39
2023-11-03T09:20:25.342Z,12.32
2023-11-03T09:22:51.822Z,12.23
2023-11-03T09:25:21.576Z,12.15
2023-11-03T09:27:48.554Z,12.08
2023-11-03T09:30:16.563Z,12.01
2023-11-03T09:32:43.974Z,11.96
2023-11-03T09:35:11.786Z,11.93
2023-11-03T09:37:39.740Z,11.90
2023-11-03T09:40:11.051Z,11.89
2023-11-03T09:42:41.720Z,11.91
2023-11-03T09:45:15.949Z,11.89
2023-11-03T09:47:42.889Z,11.87
2023-11-03T09:50:11.922Z,11.86
2023-11-03T09:52:45.286Z,11.83
2023-11-03T09:55:14.943Z,11.78
2023-11-03T09:57:42.642Z,11.74
2023-11-03T10:00:16.986Z,11.69
2023-11-03T10:02:44.463Z,11.64
2023-11-03T10:05:18.045Z,11.59
2023-11-03T10:08:03.457Z,11.58
2023-11-03T10:10:34.247Z,11.56
2023-11-03T10:13:05.694Z,11.53
2023-11-03T10:15:32.748Z,11.50
2023-11-03T10:18:00.449Z,11.47
2023-11-03T10:20:27.872Z,11.45
2023-11-03T10:22:54.904Z,11.41
2023-11-03T10:25:28.135Z,11.40
2023-11-03T10:27:56.392Z,11.39
2023-11-03T10:30:30.441Z,11.38
2023-11-03T10:32:57.449Z,11.39
2023-11-03T10:35:24.334Z,11.39
2023-11-03T10:37:54.603Z,11.37
2023-11-03T10:40:23.815Z,11.36
2023-11-03T10:42:54.339Z,11.37
2023-11-03T10:45:24.484Z,11.39
2023-11-03T10:48:11.192Z,11.40
2023-11-03T10:51:01.474Z,11.39
2023-11-03T10:53:32.646Z,11.38
2023-11-03T10:56:19.672Z,11.38
2023-11-03T10:58:49.837Z,11.39
2023-11-03T11:01:24.476Z,11.38
2023-11-03T11:03:59.035Z,11.39
2023-11-03T11:06:35.029Z,11.40
2023-11-03T11:09:09.731Z,11.39
2023-11-03T11:11:39.734Z,11.39
2023-11-03T11:14:25.182Z,11.38
2023-11-03T11:16:55.254Z,11.38
2023-11-03T11:19:40.362Z,11.38
2023-11-03T11:22:10.646Z,11.38
2023-11-03T11:24:39.053Z,11.38
2023-11-03T11:27:15.734Z,11.38
2023-11-03T11:29:43.421Z,11.38
2023-11-03T11:32:11.917Z,11.37
2023-11-03T11:34:39.770Z,11.37
2023-11-03T11:37:28.143Z,11.38
2023-11-03T11:40:01.112Z,11.39
2023-11-03T11:42:30.182Z,11.40
2023-11-03T11:45:02.691Z,11.42
2023-11-03T11:47:29.804Z,11.42
2023-11-03T11:49:57.532Z,11.43
2023-11-03T11:52:29.387Z,11.46
2023-11-03T11:54:57.876Z,11.48
2023-11-03T11:57:25.748Z,11.50
2023-11-03T11:59:54.107Z,11.52
2023-11-03T12:02:21.554Z,11.53
2023-11-03T12:04:50.047Z,11.52
2023-11-03T12:07:27.402Z,11.51
2023-11-03T12:09:55.240Z,11.51
2023-11-03T12:12:23.008Z,11.51
2023-11-03T12:14:50.521Z,11.52
2023-11-03T12:17:20.010Z,11.55
2023-11-03T12:19:47.968Z,11.58
2023-11-03T12:22:24.413Z,11.59
2023-11-03T12:24:56.877Z,11.60
2023-11-03T12:27:24.472Z,11.60
2023-11-03T12:29:54.627Z,11.61
2023-11-03T12:32:21.481Z,11.64
2023-11-03T12:34:48.100Z,11.66
2023-11-03T12:37:15.585Z,11.68
2023-11-03T12:39:55.551Z,11.69
2023-11-03T12:42:24.396Z,11.69
2023-11-03T12:44:55.009Z,11.69
2023-11-03T12:47:45.136Z,11.69
2023-11-03T12:50:22.841Z,11.68
2023-11-03T12:52:57.182Z,11.66
2023-11-03T12:55:28.508Z,11.65
2023-11-03T12:57:56.250Z,11.64
2023-11-03T13:02:28.537Z,11.64
2023-11-03T13:04:55.977Z,11.61
2023-11-03T13:07:22.705Z,11.62
2023-11-03T13:09:49.333Z,11.62
2023-11-03T13:12:19.887Z,11.62
2023-11-03T13:14:46.538Z,11.60
2023-11-03T13:17:15.221Z,11.58
2023-11-03T13:19:42.774Z,11.56
2023-11-03T13:22:12.317Z,11.52
2023-11-03T13:24:43.628Z,11.50
2023-11-03T13:27:10.345Z,11.47
2023-11-03T13:29:38.435Z,11.44
2023-11-03T13:32:06.396Z,11.40
2023-11-03T13:34:34.077Z,11.34
2023-11-03T13:37:01.449Z,11.29
2023-11-03T13:39:29.091Z,11.24
2023-11-03T13:41:56.667Z,11.20
2023-11-03T13:44:26.924Z,11.16
2023-11-03T13:46:54.627Z,11.11
2023-11-03T13:49:28.953Z,11.07
2023-11-03T13:52:02.339Z,11.02
2023-11-03T13:54:29.240Z,10.97
2023-11-03T13:56:56.583Z,10.91
2023-11-03T13:59:24.715Z,10.86
2023-11-03T14:01:51.330Z,10.83
2023-11-03T14:04:18.011Z,10.80
2023-11-03T14:06:44.906Z,10.78
2023-11-03T14:09:12.114Z,10.75
2023-11-03T14:11:38.901Z,10.74
2023-11-03T14:14:07.529Z,10.74
2023-11-03T14:16:34.244Z,10.73
2023-11-03T14:19:01.588Z,10.71
2023-11-03T14:21:29.792Z,10.69
2023-11-03T14:23:57.670Z,10.67
2023-11-03T14:26:24.675Z,10.64
2023-11-03T14:28:51.441Z,10.62
2023-11-03T14:31:18.119Z,10.60
2023-11-03T14:33:45.279Z,10.57
2023-11-03T14:36:13.831Z,10.56
2023-11-03T14:38:43.182Z,10.56
2023-11-03T14:41:10.635Z,10.55
2023-11-03T14:43:39.946Z,10.53
2023-11-03T14:46:09.257Z,10.51
2023-11-03T14:48:36.054Z,10.48
2023-11-03T14:51:03.342Z,10.47
2023-11-03T14:53:33.112Z,10.48
2023-11-03T14:56:03.340Z,10.48
2023-11-03T14:58:31.445Z,10.50
2023-11-03T15:00:58.565Z,10.51
2023-11-03T15:03:25.277Z,10.52
2023-11-03T15:05:52.676Z,10.52
2023-11-03T15:08:19.592Z,10.52
2023-11-03T15:10:46.748Z,10.53
2023-11-03T15:13:16.290Z,10.54
2023-11-03T15:15:45.250Z,10.54
2023-11-03T15:18:12.051Z,10.54
2023-11-03T15:20:38.736Z,10.54
2023-11-03T15:23:05.303Z,10.55
2023-11-03T15:25:35.655Z,10.56
2023-11-03T15:28:07.400Z,10.54
2023-11-03T15:30:35.903Z,10.53
2023-11-03T15:33:02.913Z,10.53
2023-11-03T15:35:29.760Z,10.51
2023-11-03T15:37:56.345Z,10.51
2023-11-03T15:40:24.435Z,10.50
2023-11-03T15:42:52.022Z,10.50
2023-11-03T15:45:18.837Z,10.50
2023-11-03T15:47:47.958Z,10.51
2023-11-03T15:50:17.831Z,10.51
2023-11-03T15:52:48.353Z,10.51
2023-11-03T15:55:15.065Z,10.51
2023-11-03T15:57:42.836Z,10.51
2023-11-03T16:00:14.851Z,10.51
2023-11-03T16:02:44.963Z,10.52
2023-11-03T16:05:12.801Z,10.52
2023-11-03T16:07:40.186Z,10.52
2023-11-03T16:10:07.703Z,10.53
2023-11-03T16:12:35.533Z,10.54
2023-11-03T16:15:03.810Z,10.55
2023-11-03T16:17:31.024Z,10.56
2023-11-03T16:20:00.800Z,10.57
2023-11-03T16:22:28.611Z,10.58
2023-11-03T16:24:55.311Z,10.59
2023-11-03T16:27:22.810Z,10.59
2023-11-03T16:29:51.795Z,10.59
2023-11-03T16:32:18.877Z,10.58
2023-11-03T16:34:45.887Z,10.59
2023-11-03T16:37:12.667Z,10.58
2023-11-03T16:39:39.194Z,10.59
2023-11-03T16:42:06.159Z,10.59
2023-11-03T16:44:32.834Z,10.58
2023-11-03T16:47:00.016Z,10.59
2023-11-03T16:49:26.839Z,10.60
2023-11-03T16:51:54.030Z,10.61
2023-11-03T16:54:20.688Z,10.62
2023-11-03T16:56:47.728Z,10.64
2023-11-03T16:59:18.443Z,10.66
2023-11-03T17:01:45.909Z,10.66
2023-11-03T17:04:17.154Z,10.67
2023-11-03T17:06:45.114Z,10.68
2023-11-03T17:09:11.805Z,10.68
2023-11-03T17:11:38.608Z,10.69
2023-11-03T17:14:06.889Z,10.70
2023-11-03T17:16:33.822Z,10.71
2023-11-03T17:19:00.614Z,10.72
2023-11-03T17:21:29.927Z,10.73
2023-11-03T17:23:56.872Z,10.72
2023-11-03T17:26:24.413Z,10.73
2023-11-03T17:28:55.221Z,10.74
2023-11-03T17:31:24.789Z,10.76
2023-11-03T17:33:52.844Z,10.77
2023-11-03T17:36:19.911Z,10.78
2023-11-03T17:38:46.586Z,10.79
2023-11-03T17:41:16.332Z,10.79
2023-11-03T17:43:43.050Z,10.80
2023-11-03T17:46:10.471Z,10.81
2023-11-03T17:48:37.655Z,10.81
2023-11-03T17:51:07.064Z,10.82
2023-11-03T17:53:34.282Z,10.84
2023-11-03T17:56:02.758Z,10.84
2023-11-03T17:58:29.933Z,10.85
2023-11-03T18:00:58.551Z,10.85
2023-11-03T18:03:27.858Z,10.86
2023-11-03T18:05:55.180Z,10.85
2023-11-03T18:08:22.005Z,10.85
2023-11-03T18:10:48.797Z,10.86
2023-11-03T18:13:16.228Z,10.86
2023-11-03T18:15:43.013Z,10.86
2023-11-03T18:18:10.638Z,10.86
2023-11-03T18:20:39.297Z,10.86
2023-11-03T18:23:08.402Z,10.86
2023-11-03T18:25:36.349Z,10.87
2023-11-03T18:28:06.093Z,10.88
2023-11-03T18:30:34.148Z,10.89
2023-11-03T18:33:01.759Z,10.90
2023-11-03T18:35:28.877Z,10.92
2023-11-03T18:37:55.636Z,10.94
2023-11-03T18:40:27.926Z,10.96
2023-11-03T18:42:55.063Z,10.98
2023-11-03T18:45:21.904Z,11.00
2023-11-03T18:47:49.623Z,11.02
2023-11-03T18:52:49.928Z,11.09
2023-11-03T18:56:08.777Z,11.12
2023-11-03T19:07:09.487Z,11.23
2023-11-03T19:08:23.586Z,11.26
2023-11-03T19:10:51.352Z,11.27
2023-11-03T19:13:18.998Z,11.30
2023-11-03T19:15:46.374Z,11.32
2023-11-03T19:18:13.124Z,11.34
2023-11-03T19:20:40.749Z,11.36
2023-11-03T19:23:08.094Z,11.36
2023-11-03T19:25:37.424Z,11.38
2023-11-03T19:28:07.486Z,11.39
2023-11-03T19:30:36.161Z,11.39
2023-11-03T19:33:03.053Z,11.40
2023-11-03T19:35:32.159Z,11.41
2023-11-03T19:38:00.223Z,11.43
2023-11-03T19:40:27.582Z,11.44
2023-11-03T19:42:54.431Z,11.45
2023-11-03T19:45:21.496Z,11.46
2023-11-03T19:47:48.248Z,11.48
2023-11-03T19:50:16.254Z,11.49
2023-11-03T19:52:43.138Z,11.50
2023-11-03T19:55:10.066Z,11.51
2023-11-03T19:57:36.871Z,11.53
2023-11-03T20:00:08.034Z,11.54
2023-11-03T20:02:35.531Z,11.54
2023-11-03T20:05:03.793Z,11.56
2023-11-03T20:07:31.052Z,11.56
2023-11-03T20:09:59.619Z,11.59
2023-11-03T20:12:27.562Z,11.60
2023-11-03T20:14:56.866Z,11.62
2023-11-03T20:17:25.182Z,11.65
2023-11-03T20:19:52.213Z,11.66
2023-11-03T20:23:00.137Z,11.69
2023-11-03T20:25:27.196Z,11.70
2023-11-03T20:27:53.959Z,11.70
2023-11-03T20:30:21.186Z,11.71
2023-11-03T20:32:49.013Z,11.73
2023-11-03T20:35:18.347Z,11.74
2023-11-03T20:37:44.984Z,11.75
2023-11-03T20:40:12.854Z,11.75
2023-11-03T20:42:40.506Z,11.76
2023-11-03T20:45:07.833Z,11.76
2023-11-03T20:47:34.705Z,11.77
2023-11-03T20:50:01.605Z,11.77
2023-11-03T20:52:29.395Z,11.76
2023-11-03T20:54:56.755Z,11.76
2023-11-03T20:57:23.782Z,11.76
2023-11-03T20:59:50.832Z,11.77
2023-11-03T21:02:18.248Z,11.78
2023-11-03T21:04:45.255Z,11.78
2023-11-03T21:07:13.144Z,11.79
2023-11-03T21:09:41.076Z,11.80
2023-11-03T21:12:08.290Z,11.80
2023-11-03T21:14:34.924Z,11.81
2023-11-03T21:17:01.484Z,11.82
2023-11-03T21:19:34.091Z,11.82
2023-11-03T21:22:01.480Z,11.83
2023-11-03T21:24:28.362Z,11.83
2023-11-03T21:26:55.432Z,11.84
2023-11-03T21:29:22.319Z,11.86
2023-11-03T21:31:49.175Z,11.87
2023-11-03T21:34:17.532Z,11.88
2023-11-03T21:36:44.225Z,11.89
2023-11-03T21:39:13.941Z,11.91
2023-11-03T21:41:46.791Z,11.92
2023-11-03T21:44:13.665Z,11.94
2023-11-03T21:46:40.834Z,11.96
2023-11-03T21:49:08.867Z,11.97
2023-11-03T21:51:37.139Z,11.99
2023-11-03T21:54:04.858Z,12.00
2023-11-03T21:56:32.062Z,12.02
2023-11-03T21:58:58.840Z,12.04
2023-11-03T22:01:26.221Z,12.05
2023-11-03T22:03:54.277Z,12.07
2023-11-03T22:06:21.439Z,12.08
2023-11-03T22:08:56.905Z,12.10
2023-11-03T22:11:29.839Z,12.11
2023-11-03T22:13:57.331Z,12.12
2023-11-03T22:16:27.377Z,12.14
2023-11-03T22:18:54.771Z,12.15
2023-11-03T22:21:21.426Z,12.17
2023-11-03T22:23:48.309Z,12.17
2023-11-03T22:26:22.492Z,12.18
2023-11-03T22:28:52.216Z,12.19
2023-11-03T22:31:19.014Z,12.19
2023-11-03T22:33:45.850Z,12.19
2023-11-03T22:36:13.508Z,12.18
2023-11-03T22:38:40.666Z,12.18
2023-11-03T22:41:09.808Z,12.17
2023-11-03T22:43:39.108Z,12.16
2023-11-03T22:46:06.482Z,12.16
2023-11-03T22:48:33.926Z,12.16
2023-11-03T22:51:00.760Z,12.16
2023-11-03T22:53:28.021Z,12.16
2023-11-03T22:55:54.632Z,12.16
2023-11-03T22:58:21.684Z,12.17
2023-11-03T23:00:49.492Z,12.17
2023-11-03T23:03:16.121Z,12.17
2023-11-03T23:05:42.781Z,12.18
2023-11-03T23:08:11.945Z,12.19
2023-11-03T23:10:41.432Z,12.18
2023-11-03T23:13:08.136Z,12.18
2023-11-03T23:15:35.138Z,12.17
2023-11-03T23:18:01.954Z,12.16
2023-11-03T23:20:28.659Z,12.16
2023-11-03T23:22:55.438Z,12.15
2023-11-03T23:25:22.623Z,12.15
2023-11-03T23:27:49.511Z,12.14
2023-11-03T23:30:16.477Z,12.14
2023-11-03T23:32:44.015Z,12.13
2023-11-03T23:35:12.249Z,12.13
2023-11-03T23:37:38.812Z,12.13
2023-11-03T23:40:06.676Z,12.13
2023-11-03T23:42:34.333Z,12.14
2023-11-03T23:45:01.282Z,12.15
2023-11-03T23:47:28.337Z,12.16
2023-11-03T23:49:56.380Z,12.18
2023-11-03T23:52:23.228Z,12.19
2023-11-03T23:54:50.266Z,12.20
2023-11-03T23:57:16.752Z,12.21
2023-11-03T23:59:43.503Z,12.22
